Time;durP1;ratioP1;P1;durP2;ratioP2;P2;SDS_P1;SDS_P2;PMS_P1;PMS_P2;Temp;Humidity;BMP_temperature;BMP_pressure;BME280_temperature;BME280_humidity;BME280_pressure;Samples;Min_cycle;Max_cycle;Signal;HPM_P1;HPM_P2
2022/05/29 00:00:41;;;;;;;2.30;0.97;;;11.50;99.90;;;;;;5065697;28;20217;-76
2022/05/29 00:03:07;;;;;;;4.13;1.10;;;11.50;99.90;;;;;;5066131;28;20204;-78
2022/05/29 00:05:36;;;;;;;4.63;1.37;;;11.40;99.90;;;;;;5065505;28;20492;-79
2022/05/29 00:08:02;;;;;;;5.57;1.30;;;11.40;99.90;;;;;;5066505;28;20216;-77
2022/05/29 00:10:29;;;;;;;9.00;2.33;;;11.40;99.90;;;;;;5066337;28;20193;-77
2022/05/29 00:12:56;;;;;;;3.87;1.70;;;11.30;99.90;;;;;;5066333;28;20209;-78
2022/05/29 00:15:23;;;;;;;8.87;1.60;;;11.40;99.90;;;;;;5066458;28;20200;-79
2022/05/29 00:17:52;;;;;;;11.60;1.90;;;11.40;99.90;;;;;;5066421;28;20850;-79
2022/05/29 00:20:19;;;;;;;8.73;1.70;;;11.50;99.90;;;;;;5065281;28;20288;-76
2022/05/29 00:22:46;;;;;;;6.53;1.80;;;11.50;99.90;;;;;;5066742;28;20208;-78
2022/05/29 00:25:14;;;;;;;10.23;1.90;;;11.60;99.90;;;;;;5067571;28;20710;-80
2022/05/29 00:27:40;;;;;;;7.93;1.50;;;11.60;99.90;;;;;;5070036;28;20197;-77
2022/05/29 00:30:10;;;;;;;9.10;1.70;;;11.70;99.90;;;;;;5073353;28;20522;-78
2022/05/29 00:32:37;;;;;;;7.07;2.10;;;11.70;99.90;;;;;;5091797;28;20208;-79
2022/05/29 00:35:05;;;;;;;9.23;1.80;;;11.80;99.90;;;;;;5089411;28;20203;-80
2022/05/29 00:37:36;;;;;;;8.70;2.10;;;11.80;99.90;;;;;;5090931;28;20204;-80
2022/05/29 00:40:03;;;;;;;6.40;2.00;;;11.70;99.90;;;;;;5075067;28;20213;-77
2022/05/29 00:42:30;;;;;;;9.20;2.20;;;11.80;99.90;;;;;;5070902;28;20224;-77
2022/05/29 00:44:57;;;;;;;8.10;2.27;;;11.70;99.90;;;;;;5069750;28;20256;-79
2022/05/29 00:47:27;;;;;;;7.90;1.93;;;11.80;99.90;;;;;;5069730;28;20208;-79
2022/05/29 00:49:54;;;;;;;16.60;2.43;;;11.80;99.90;;;;;;5069556;28;20300;-78
2022/05/29 00:52:25;;;;;;;5.03;1.80;;;11.80;99.90;;;;;;5068810;28;20288;-77
2022/05/29 00:54:58;;;;;;;7.67;2.30;;;11.70;99.90;;;;;;5069405;28;20897;-79
2022/05/29 00:57:28;;;;;;;7.70;2.60;;;11.80;99.90;;;;;;5069867;28;20612;-79
2022/05/29 00:59:57;;;;;;;7.07;1.90;;;11.70;99.90;;;;;;5069753;28;20225;-78
2022/05/29 01:02:24;;;;;;;9.43;2.47;;;11.70;99.90;;;;;;5079009;28;20225;-79
2022/05/29 01:04:51;;;;;;;9.33;2.30;;;11.70;99.90;;;;;;5091032;28;20209;-79
2022/05/29 01:07:20;;;;;;;7.20;2.33;;;11.60;99.90;;;;;;5089590;28;20209;-80
2022/05/29 01:09:50;;;;;;;9.30;1.90;;;11.60;99.90;;;;;;5087345;28;20607;-79
2022/05/29 01:12:30;;;;;;;8.87;2.40;;;11.60;99.90;;;;;;5102941;28;20620;-79
2022/05/29 01:15:07;;;;;;;10.30;2.70;;;11.70;99.90;;;;;;5099493;28;20205;-79
2022/05/29 01:17:40;;;;;;;8.20;2.67;;;11.70;99.90;;;;;;5088120;28;20204;-80
2022/05/29 01:20:15;;;;;;;18.43;3.33;;;11.70;99.90;;;;;;5070540;28;20258;-80
2022/05/29 01:22:58;;;;;;;10.77;2.10;;;11.70;99.90;;;;;;5069570;28;20224;-79
2022/05/29 01:25:53;;;;;;;12.53;2.77;;;11.70;99.90;;;;;;5070769;28;20224;-80
2022/05/29 01:28:39;;;;;;;7.17;2.10;;;11.60;99.90;;;;;;5069768;28;20507;-79
2022/05/29 01:31:11;;;;;;;15.53;3.10;;;11.60;99.90;;;;;;5069896;28;20213;-79
2022/05/29 01:33:43;;;;;;;7.20;1.97;;;11.60;99.90;;;;;;5070056;28;20909;-82
2022/05/29 01:36:15;;;;;;;7.33;2.47;;;11.70;99.90;;;;;;5069373;28;20201;-80
2022/05/29 01:38:47;;;;;;;9.80;2.57;;;11.60;99.90;;;;;;5069915;28;20216;-80
2022/05/29 01:41:23;;;;;;;8.80;2.00;;;11.60;99.90;;;;;;5070432;28;20225;-80
2022/05/29 01:43:56;;;;;;;7.03;2.07;;;11.50;99.90;;;;;;5069530;28;20821;-79
2022/05/29 01:46:27;;;;;;;8.20;1.80;;;11.50;99.90;;;;;;5069849;28;20226;-79
2022/05/29 01:49:00;;;;;;;8.03;2.10;;;11.50;99.90;;;;;;5070467;28;20263;-79
2022/05/29 01:51:34;;;;;;;4.83;1.63;;;11.50;99.90;;;;;;5089785;28;20261;-79
2022/05/29 01:54:09;;;;;;;7.43;2.13;;;11.40;99.90;;;;;;5090540;28;20197;-82
2022/05/29 01:56:41;;;;;;;6.70;1.90;;;11.50;99.90;;;;;;5083029;28;20219;-80
2022/05/29 01:59:14;;;;;;;6.70;1.87;;;11.50;99.90;;;;;;5070349;28;20236;-82
2022/05/29 02:01:47;;;;;;;6.30;1.70;;;11.50;99.90;;;;;;5071070;28;20228;-82
2022/05/29 02:04:17;;;;;;;5.77;1.73;;;11.40;99.90;;;;;;5087264;28;20276;-82
2022/05/29 02:09:36;;;;;;;4.87;1.40;;;11.30;99.90;;;;;;5070606;28;20208;-82
2022/05/29 02:12:07;;;;;;;4.83;1.43;;;11.30;99.90;;;;;;5069990;28;20608;-81
2022/05/29 02:14:39;;;;;;;3.47;1.30;;;11.20;99.90;;;;;;5071165;28;20189;-81
2022/05/29 02:17:11;;;;;;;6.13;1.50;;;11.20;99.90;;;;;;5071952;28;20505;-84
2022/05/29 02:19:42;;;;;;;4.37;1.60;;;11.20;99.90;;;;;;5071798;28;20201;-82
2022/05/29 02:22:12;;;;;;;6.87;2.70;;;11.10;99.90;;;;;;5071302;28;20209;-83
2022/05/29 02:24:43;;;;;;;5.70;1.60;;;11.10;99.90;;;;;;5071379;28;20564;-84
2022/05/29 02:27:14;;;;;;;4.90;1.60;;;11.00;99.90;;;;;;5071342;28;20201;-82
2022/05/29 02:29:43;;;;;;;4.67;1.60;;;11.00;99.90;;;;;;5071896;28;20259;-82
2022/05/29 02:32:16;;;;;;;3.57;1.73;;;11.00;99.90;;;;;;5070211;28;20640;-84
2022/05/29 02:34:52;;;;;;;6.70;2.53;;;10.90;99.90;;;;;;5068503;28;20205;-82
2022/05/29 02:37:26;;;;;;;10.10;2.80;;;11.00;99.90;;;;;;5070653;28;20250;-81
2022/05/29 02:40:04;;;;;;;6.73;1.70;;;10.90;99.90;;;;;;5070304;28;20636;-82
2022/05/29 02:42:39;;;;;;;5.67;2.07;;;11.00;99.90;;;;;;5070449;28;20224;-82
2022/05/29 02:45:20;;;;;;;7.33;2.27;;;10.90;99.90;;;;;;5070166;28;20979;-83
2022/05/29 02:47:55;;;;;;;6.53;2.20;;;10.90;99.90;;;;;;5069440;28;20201;-81
2022/05/29 02:50:35;;;;;;;9.03;2.10;;;10.90;99.90;;;;;;5083480;28;20483;-82
2022/05/29 02:53:07;;;;;;;12.33;2.93;;;10.80;99.90;;;;;;5090408;28;20200;-82
2022/05/29 02:55:34;;;;;;;9.93;2.43;;;10.90;99.90;;;;;;5091356;28;20185;-82
2022/05/29 02:58:03;;;;;;;4.30;2.40;;;10.90;99.90;;;;;;5090350;28;20197;-83
2022/05/29 03:00:39;;;;;;;11.03;2.97;;;10.90;99.90;;;;;;5090946;28;20212;-81
2022/05/29 03:03:17;;;;;;;6.23;2.20;;;10.90;99.90;;;;;;5090285;28;20232;-81
2022/05/29 03:05:53;;;;;;;3.60;1.60;;;11.00;99.90;;;;;;5073303;28;20201;-81
2022/05/29 03:08:34;;;;;;;7.23;2.23;;;11.00;99.90;;;;;;5069554;28;20196;-82
2022/05/29 03:11:10;;;;;;;6.50;1.70;;;11.00;99.90;;;;;;5070467;28;20547;-83
2022/05/29 03:13:48;;;;;;;6.83;2.20;;;11.00;99.90;;;;;;5077867;22;20244;-83
2022/05/29 03:16:27;;;;;;;7.20;1.80;;;11.00;99.90;;;;;;5051796;28;20678;-83
2022/05/29 03:19:05;;;;;;;4.17;2.03;;;11.00;99.90;;;;;;5069411;28;20205;-82
2022/05/29 03:21:37;;;;;;;8.93;2.80;;;11.10;99.90;;;;;;5063041;28;20256;-82
2022/05/29 03:24:15;;;;;;;7.57;2.10;;;11.00;99.90;;;;;;5050046;28;20206;-83
2022/05/29 03:26:49;;;;;;;6.47;1.93;;;11.00;99.90;;;;;;5051143;28;20260;-82
2022/05/29 03:29:20;;;;;;;8.53;2.47;;;10.90;99.90;;;;;;5049995;28;20194;-82
2022/05/29 03:31:50;;;;;;;6.10;2.10;;;10.90;99.90;;;;;;5051233;28;20333;-82
2022/05/29 03:34:17;;;;;;;7.37;2.60;;;10.90;99.90;;;;;;5050088;28;20194;-83
2022/05/29 03:36:46;;;;;;;6.53;2.13;;;10.90;99.90;;;;;;5049277;28;20193;-82
2022/05/29 03:39:13;;;;;;;9.07;2.23;;;10.90;99.90;;;;;;5049309;28;20214;-82
2022/05/29 03:41:46;;;;;;;7.17;2.43;;;10.90;99.90;;;;;;5049552;28;20226;-82
2022/05/29 03:44:14;;;;;;;9.27;2.30;;;11.00;99.90;;;;;;5049429;28;20315;-82
2022/05/29 03:46:42;;;;;;;7.43;1.90;;;10.90;99.90;;;;;;5062161;28;20197;-82
2022/05/29 03:49:11;;;;;;;7.13;2.00;;;11.00;99.90;;;;;;5068894;28;20205;-82
2022/05/29 03:51:39;;;;;;;7.10;2.17;;;11.00;99.90;;;;;;5054737;28;20233;-82
2022/05/29 03:54:07;;;;;;;7.07;1.93;;;11.00;99.90;;;;;;5049128;28;20201;-82
2022/05/29 03:56:34;;;;;;;7.47;2.03;;;11.00;99.90;;;;;;5049432;28;20201;-81
2022/05/29 03:59:01;;;;;;;11.23;2.00;;;11.00;99.90;;;;;;5049538;28;20197;-82
2022/05/29 04:01:28;;;;;;;5.67;1.80;;;11.10;99.90;;;;;;5066682;28;20228;-82
2022/05/29 04:03:55;;;;;;;8.10;1.80;;;11.10;99.90;;;;;;5074050;28;20212;-83
2022/05/29 04:06:24;;;;;;;7.00;2.40;;;11.10;99.90;;;;;;5064992;28;20206;-83
2022/05/29 04:14:21;;;;;;;8.13;2.63;;;11.10;99.90;;;;;;5052962;28;20244;-82
2022/05/29 04:16:48;;;;;;;3.27;1.60;;;11.10;99.90;;;;;;5053268;28;20245;-83
2022/05/29 04:19:15;;;;;;;6.67;2.50;;;11.20;99.90;;;;;;5053391;28;20197;-83
2022/05/29 04:21:44;;;;;;;5.37;2.20;;;11.30;99.90;;;;;;5053713;28;20676;-83
2022/05/29 04:24:11;;;;;;;7.60;2.03;;;11.40;99.90;;;;;;5053381;28;20198;-83
2022/05/29 04:26:38;;;;;;;5.73;2.30;;;11.40;99.90;;;;;;5053078;28;20229;-82
2022/05/29 04:29:06;;;;;;;10.13;2.43;;;11.40;99.90;;;;;;5053989;28;20305;-83
2022/05/29 04:31:33;;;;;;;8.03;2.53;;;11.50;99.90;;;;;;5053049;28;20202;-81
2022/05/29 04:33:59;;;;;;;10.07;2.13;;;11.60;99.90;;;;;;5052721;28;20645;-83
2022/05/29 04:36:26;;;;;;;11.20;2.43;;;11.70;99.90;;;;;;5052594;28;20209;-82
2022/05/29 04:38:55;;;;;;;10.13;2.27;;;11.80;99.90;;;;;;5065827;28;20230;-81
2022/05/29 04:41:25;;;;;;;10.30;2.40;;;11.90;99.90;;;;;;5073040;28;20295;-82
2022/05/29 04:43:52;;;;;;;12.23;2.37;;;11.90;99.90;;;;;;5073352;28;20282;-83
2022/05/29 04:46:19;;;;;;;13.33;2.63;;;11.90;99.90;;;;;;5072183;28;20259;-81
2022/05/29 04:48:46;;;;;;;9.23;2.50;;;11.90;99.90;;;;;;5053916;28;20597;-82
2022/05/29 04:51:13;;;;;;;15.00;2.90;;;12.00;99.90;;;;;;5060773;28;20212;-81
2022/05/29 04:53:40;;;;;;;9.63;2.17;;;12.00;99.90;;;;;;5072219;28;20216;-81
2022/05/29 04:56:09;;;;;;;6.20;2.90;;;12.10;99.90;;;;;;5072332;28;20593;-81
2022/05/29 04:58:36;;;;;;;9.27;2.03;;;12.20;99.90;;;;;;5072670;28;20201;-81
2022/05/29 05:01:04;;;;;;;9.77;2.00;;;12.30;99.90;;;;;;5070907;28;20212;-81
2022/05/29 05:03:32;;;;;;;7.47;2.00;;;12.60;99.90;;;;;;5071796;28;20235;-81
2022/05/29 05:06:00;;;;;;;9.33;2.20;;;12.90;99.90;;;;;;5059196;28;20515;-82
2022/05/29 05:08:26;;;;;;;12.40;1.90;;;13.40;99.90;;;;;;5051134;28;20209;-83
2022/05/29 05:10:53;;;;;;;6.40;1.60;;;13.70;99.90;;;;;;5051465;28;20202;-82
2022/05/29 05:13:21;;;;;;;5.50;1.50;;;13.90;99.90;;;;;;5050222;28;20237;-81
2022/05/29 05:15:48;;;;;;;4.87;1.50;;;14.10;99.90;;;;;;5050549;28;20641;-81
2022/05/29 05:18:15;;;;;;;6.93;1.43;;;14.30;99.90;;;;;;5057200;28;20201;-82
2022/05/29 05:20:42;;;;;;;8.40;2.20;;;14.20;99.90;;;;;;5070125;28;20208;-82
2022/05/29 05:23:09;;;;;;;8.87;2.03;;;14.10;99.90;;;;;;5070701;28;20706;-78
2022/05/29 05:25:37;;;;;;;9.73;1.80;;;14.00;99.90;;;;;;5067188;28;20480;-79
2022/05/29 05:28:05;;;;;;;9.23;2.03;;;14.10;99.90;;;;;;5049039;28;20614;-78
2022/05/29 05:30:33;;;;;;;4.33;1.83;;;14.00;99.90;;;;;;5049860;28;20197;-79
2022/05/29 05:33:00;;;;;;;6.13;1.67;;;13.80;99.90;;;;;;5058925;28;20236;-79
2022/05/29 05:35:27;;;;;;;4.70;1.37;;;13.50;99.90;;;;;;5069726;28;20213;-82
2022/05/29 05:37:53;;;;;;;5.77;1.80;;;13.20;99.90;;;;;;5070121;28;20202;-81
2022/05/29 05:40:20;;;;;;;5.10;1.53;;;12.90;99.90;;;;;;5064225;28;20209;-81
2022/05/29 05:42:47;;;;;;;6.60;1.40;;;12.70;99.90;;;;;;5048581;28;20872;-80
2022/05/29 05:45:15;;;;;;;5.37;1.53;;;12.50;99.90;;;;;;5049281;28;20585;-79
2022/05/29 05:47:43;;;;;;;6.47;2.00;;;12.40;99.90;;;;;;5050203;28;20198;-80
2022/05/29 05:50:11;;;;;;;3.50;1.20;;;12.30;99.90;;;;;;5048756;28;20205;-80
2022/05/29 05:52:38;;;;;;;6.67;1.10;;;12.30;99.90;;;;;;5068997;28;20697;-80
2022/05/29 05:55:06;;;;;;;3.23;1.30;;;12.30;99.90;;;;;;5069393;28;20205;-79
2022/05/29 05:57:32;;;;;;;5.30;1.37;;;12.20;99.90;;;;;;5069301;28;20200;-80
2022/05/29 06:00:00;;;;;;;5.80;1.27;;;12.20;99.90;;;;;;5052457;28;20214;-79
2022/05/29 06:02:27;;;;;;;2.70;1.10;;;12.20;99.90;;;;;;5049744;28;20272;-80
2022/05/29 06:04:55;;;;;;;3.47;1.17;;;12.20;99.90;;;;;;5048961;28;20209;-80
2022/05/29 06:07:22;;;;;;;3.33;1.30;;;12.30;99.90;;;;;;5049564;28;20202;-80
2022/05/29 06:09:49;;;;;;;6.90;1.70;;;12.40;99.90;;;;;;5048837;28;20206;-80
2022/05/29 06:12:19;;;;;;;3.73;1.53;;;12.40;99.90;;;;;;5049164;28;20201;-80
2022/05/29 06:14:46;;;;;;;6.00;1.50;;;12.50;99.90;;;;;;5067353;28;20248;-79
2022/05/29 06:17:13;;;;;;;2.23;1.10;;;12.50;99.90;;;;;;5068347;28;20201;-79
2022/05/29 06:19:40;;;;;;;3.57;1.10;;;12.60;99.90;;;;;;5051694;28;20597;-80
2022/05/29 06:22:09;;;;;;;2.60;1.20;;;12.70;99.90;;;;;;5047715;28;20197;-79
2022/05/29 06:24:36;;;;;;;4.70;1.77;;;12.80;99.90;;;;;;5056366;28;20224;-80
2022/05/29 06:27:04;;;;;;;11.43;2.03;;;12.90;99.90;;;;;;5068182;28;20280;-80
2022/05/29 06:29:31;;;;;;;5.73;1.30;;;13.00;99.90;;;;;;5069004;28;20593;-79
2022/05/29 06:32:01;;;;;;;4.63;1.10;;;13.00;99.90;;;;;;5067894;28;20209;-81
2022/05/29 06:34:27;;;;;;;6.93;1.67;;;13.10;99.90;;;;;;5057897;28;20206;-79
2022/05/29 06:36:54;;;;;;;6.47;1.87;;;13.10;99.90;;;;;;5048422;28;20201;-79
2022/05/29 06:39:23;;;;;;;5.20;1.67;;;13.20;99.90;;;;;;5047282;28;20201;-79
2022/05/29 06:41:50;;;;;;;5.00;1.40;;;13.20;99.90;;;;;;5048483;28;20206;-79
2022/05/29 06:44:16;;;;;;;8.93;1.53;;;13.20;99.90;;;;;;5047750;28;20226;-80
2022/05/29 06:46:43;;;;;;;11.67;2.30;;;13.30;99.90;;;;;;5048348;28;20213;-80
2022/05/29 06:49:10;;;;;;;6.00;1.60;;;13.40;99.90;;;;;;5047826;28;20233;-81
2022/05/29 06:51:37;;;;;;;4.37;1.40;;;13.40;99.90;;;;;;5048357;28;20235;-80
2022/05/29 06:54:05;;;;;;;9.50;1.70;;;13.60;99.90;;;;;;5047821;28;20202;-83
2022/05/29 06:56:34;;;;;;;6.53;1.87;;;14.10;99.90;;;;;;5047683;28;20875;-80
2022/05/29 06:59:03;;;;;;;6.40;1.60;;;14.70;99.90;;;;;;5051075;28;20209;-80
2022/05/29 07:07:04;;;;;;;6.97;1.67;;;15.00;99.90;;;;;;5061749;28;20205;-80
2022/05/29 07:09:33;;;;;;;3.67;1.35;;;14.80;99.90;;;;;;5048053;28;20214;-81
2022/05/29 07:12:07;;;;;;;4.90;1.40;;;15.00;99.90;;;;;;5047588;28;20198;-80
2022/05/29 07:14:36;;;;;;;3.90;1.52;;;15.10;99.90;;;;;;5048573;28;20264;-80
2022/05/29 07:17:03;;;;;;;3.63;1.30;;;15.00;99.90;;;;;;5057683;28;20205;-81
2022/05/29 07:19:30;;;;;;;4.97;1.40;;;14.80;99.90;;;;;;5060831;28;20923;-77
2022/05/29 07:21:58;;;;;;;3.55;1.30;;;14.80;99.90;;;;;;5065078;28;20210;-79
2022/05/29 07:24:26;;;;;;;4.00;1.13;;;14.90;99.90;;;;;;5054661;28;20225;-82
2022/05/29 07:26:54;;;;;;;2.57;1.10;;;14.80;99.90;;;;;;5057574;28;20285;-82
2022/05/29 07:29:22;;;;;;;3.67;1.00;;;14.80;99.90;;;;;;5055136;28;20201;-80
2022/05/29 07:31:50;;;;;;;2.72;0.90;;;14.90;99.90;;;;;;5048756;28;20637;-79
2022/05/29 07:34:17;;;;;;;4.82;1.02;;;15.00;99.90;;;;;;5046416;28;20205;-79
2022/05/29 07:36:44;;;;;;;5.53;1.42;;;15.10;99.90;;;;;;5047316;28;20217;-79
2022/05/29 07:39:11;;;;;;;6.63;1.23;;;15.10;99.90;;;;;;5047213;28;20213;-80
2022/05/29 07:44:24;;;;;;;5.38;1.23;;;15.30;99.90;;;;;;5047691;28;20686;-80
2022/05/29 07:46:51;;;;;;;3.75;1.60;;;15.50;99.90;;;;;;5047435;28;20202;-80
2022/05/29 07:49:18;;;;;;;4.22;1.20;;;15.40;99.90;;;;;;5046871;28;20198;-82
2022/05/29 07:51:45;;;;;;;0.82;0.60;;;15.30;99.90;;;;;;5047205;28;20194;-82
2022/05/29 07:54:11;;;;;;;1.15;0.47;;;15.00;99.90;;;;;;5048460;28;20234;-81
2022/05/29 07:56:39;;;;;;;1.83;0.38;;;14.60;99.90;;;;;;5048258;28;20297;-83
2022/05/29 07:59:06;;;;;;;2.00;0.82;;;14.40;99.90;;;;;;5048638;28;20213;-80
2022/05/29 08:01:34;;;;;;;0.50;0.40;;;14.20;99.90;;;;;;5048775;28;20201;-80
2022/05/29 08:04:00;;;;;;;2.90;0.90;;;14.10;99.90;;;;;;5047334;28;20235;-81
2022/05/29 08:06:27;;;;;;;2.53;1.08;;;14.20;99.90;;;;;;5048912;28;20507;-81
2022/05/29 08:08:54;;;;;;;5.97;1.23;;;14.20;99.90;;;;;;5048400;28;20202;-81
2022/05/29 08:11:21;;;;;;;3.45;1.10;;;14.30;99.90;;;;;;5047916;28;20205;-81
2022/05/29 08:13:48;;;;;;;4.82;1.00;;;14.60;99.90;;;;;;5048319;28;20237;-82
2022/05/29 08:16:16;;;;;;;3.28;0.88;;;14.80;99.90;;;;;;5048318;28;20205;-81
2022/05/29 08:18:47;;;;;;;4.35;1.13;;;14.80;99.90;;;;;;5047999;28;20209;-82
2022/05/29 08:21:15;;;;;;;5.05;1.42;;;14.80;99.90;;;;;;5048410;28;20586;-82
2022/05/29 08:30:37;;;;;;;4.95;1.92;;;14.80;99.90;;;;;;5053703;28;20217;-81
2022/05/29 08:31:58;;;;;;;5.60;1.17;;;14.50;99.90;;;;;;5067340;28;20214;-81
2022/05/29 08:34:26;;;;;;;5.32;1.20;;;14.20;99.90;;;;;;5053345;28;20218;-82
2022/05/29 08:36:55;;;;;;;5.97;1.40;;;14.00;99.90;;;;;;5048179;28;20221;-80
2022/05/29 08:39:22;;;;;;;4.53;1.57;;;13.60;99.90;;;;;;5047725;28;20205;-81
2022/05/29 08:41:52;;;;;;;6.63;1.80;;;13.50;99.90;;;;;;5047637;28;20290;-81
2022/05/29 08:44:24;;;;;;;6.50;2.17;;;13.40;99.90;;;;;;5048157;28;20221;-81
2022/05/29 08:46:53;;;;;;;8.33;1.70;;;13.30;99.90;;;;;;5049093;28;20213;-81
2022/05/29 08:49:23;;;;;;;6.07;2.00;;;13.30;99.90;;;;;;5050069;28;20628;-80
2022/05/29 08:52:08;;;;;;;5.93;1.30;;;13.30;99.90;;;;;;5050544;28;20210;-79
2022/05/29 08:54:47;;;;;;;5.57;1.70;;;13.40;99.90;;;;;;5050218;28;20210;-79
2022/05/29 08:57:23;;;;;;;5.03;2.33;;;13.50;99.90;;;;;;5050033;28;20746;-82
2022/05/29 08:59:53;;;;;;;7.80;1.60;;;13.70;99.90;;;;;;5049803;28;20617;-80
2022/05/29 09:02:33;;;;;;;7.67;1.30;;;13.80;99.90;;;;;;5050552;28;20221;-80
2022/05/29 09:05:07;;;;;;;7.43;1.50;;;13.80;99.90;;;;;;5050291;28;20225;-80
2022/05/29 09:07:39;;;;;;;6.20;1.17;;;13.90;99.90;;;;;;5050357;28;20324;-81
2022/05/29 09:10:14;;;;;;;6.97;1.57;;;13.90;99.90;;;;;;5048881;28;20221;-81
2022/05/29 09:12:46;;;;;;;6.03;1.90;;;14.00;99.90;;;;;;5048710;28;20213;-81
2022/05/29 09:15:16;;;;;;;7.93;1.77;;;14.10;99.90;;;;;;5049167;28;20210;-81
2022/05/29 09:17:49;;;;;;;7.30;1.50;;;14.10;99.90;;;;;;5050036;28;20585;-81
2022/05/29 09:20:26;;;;;;;4.73;1.30;;;14.00;99.90;;;;;;5050257;28;20675;-81
2022/05/29 09:22:56;;;;;;;5.87;1.13;;;14.00;99.90;;;;;;5049876;28;20251;-81
2022/05/29 09:25:29;;;;;;;5.63;1.37;;;14.00;99.90;;;;;;5048977;28;20222;-78
2022/05/29 09:28:00;;;;;;;7.10;1.60;;;13.90;99.90;;;;;;5049102;28;20210;-82
2022/05/29 09:30:27;;;;;;;11.83;1.83;;;13.80;99.90;;;;;;5049551;28;20213;-80
2022/05/29 09:32:58;;;;;;;4.33;1.67;;;13.80;99.90;;;;;;5049481;28;20256;-79
2022/05/29 09:35:33;;;;;;;7.37;1.53;;;13.80;99.90;;;;;;5049275;28;20566;-80
2022/05/29 09:38:07;;;;;;;7.47;1.70;;;13.70;99.90;;;;;;5048767;28;20300;-80
2022/05/29 09:40:40;;;;;;;5.53;1.23;;;13.80;99.90;;;;;;5050095;28;20232;-81
2022/05/29 09:43:18;;;;;;;8.07;1.50;;;13.70;99.90;;;;;;5047963;28;20249;-81
2022/05/29 09:45:45;;;;;;;8.10;1.80;;;13.80;99.90;;;;;;5048613;28;20289;-80
2022/05/29 09:51:16;;;;;;;5.37;1.30;;;13.70;99.90;;;;;;5048921;28;20353;-82
2022/05/29 09:53:49;;;;;;;5.47;1.87;;;13.70;99.90;;;;;;5049025;28;20204;-79
2022/05/29 09:56:27;;;;;;;8.37;1.07;;;13.80;99.90;;;;;;5047872;28;20213;-81
2022/05/29 09:58:57;;;;;;;7.50;1.87;;;13.90;99.90;;;;;;5048316;28;20304;-81
2022/05/29 10:01:30;;;;;;;2.90;1.05;;;14.10;99.90;;;;;;5048398;28;20456;-78
2022/05/29 10:03:58;;;;;;;4.77;1.00;;;14.20;99.90;;;;;;5048048;28;20538;-81
2022/05/29 10:06:30;;;;;;;7.55;1.50;;;14.30;99.90;;;;;;5048604;28;20205;-79
2022/05/29 10:09:17;;;;;;;5.33;1.50;;;14.40;99.90;;;;;;5048757;28;20247;-79
2022/05/29 10:11:46;;;;;;;2.75;1.33;;;14.50;99.90;;;;;;5048514;28;20602;-81
2022/05/29 10:14:36;;;;;;;5.95;1.30;;;14.50;99.90;;;;;;5048261;28;20337;-79
2022/05/29 10:17:11;;;;;;;7.60;1.45;;;14.60;99.90;;;;;;5043590;28;20513;-80
2022/05/29 10:19:40;;;;;;;13.95;1.65;;;14.70;99.90;;;;;;5048733;28;20206;-80
2022/05/29 10:22:16;;;;;;;4.82;1.48;;;15.00;99.90;;;;;;5048707;28;20206;-82
2022/05/29 10:24:44;;;;;;;8.52;1.35;;;15.30;99.90;;;;;;5047081;28;20241;-81
2022/05/29 10:27:23;;;;;;;5.03;1.20;;;15.60;99.90;;;;;;5047972;28;20190;-79
2022/05/29 10:29:55;;;;;;;3.65;1.00;;;15.90;99.90;;;;;;5048918;28;20210;-80
2022/05/29 10:32:24;;;;;;;4.63;1.15;;;16.00;99.90;;;;;;5046996;28;20286;-78
2022/05/29 10:34:51;;;;;;;3.17;1.10;;;16.00;99.90;;;;;;5047836;28;20198;-78
2022/05/29 10:37:26;;;;;;;3.53;1.02;;;16.00;99.90;;;;;;5046377;28;20633;-79
2022/05/29 10:40:12;;;;;;;3.90;0.80;;;15.90;99.90;;;;;;5047391;28;20197;-79
2022/05/29 10:42:45;;;;;;;3.92;1.27;;;16.00;99.90;;;;;;5046895;28;20837;-80
2022/05/29 10:45:23;;;;;;;5.63;1.90;;;16.10;99.90;;;;;;5046301;28;20699;-79
2022/05/29 10:48:09;;;;;;;2.83;1.10;;;16.30;99.90;;;;;;5047071;28;20225;-77
2022/05/29 10:50:50;;;;;;;6.10;3.15;;;16.50;99.90;;;;;;5047129;28;20205;-80
2022/05/29 10:53:26;;;;;;;6.82;4.03;;;16.60;99.90;;;;;;5066016;28;20212;-78
2022/05/29 10:56:03;;;;;;;2.92;1.30;;;16.40;99.90;;;;;;5067146;28;20216;-79
2022/05/29 10:58:56;;;;;;;6.18;2.45;;;16.60;99.90;;;;;;5056559;28;20216;-79
2022/05/29 11:04:55;;;;;;;5.50;0.95;;;16.90;99.90;;;;;;5047244;28;20229;-79
2022/05/29 11:07:49;;;;;;;2.63;0.70;;;17.00;99.90;;;;;;5050545;28;20243;-78
2022/05/29 11:10:29;;;;;;;2.80;1.10;;;16.80;99.90;;;;;;5066816;28;20208;-79
2022/05/29 11:13:14;;;;;;;2.47;0.80;;;16.90;99.90;;;;;;5066735;28;20229;-79
2022/05/29 11:15:47;;;;;;;4.55;0.90;;;17.00;99.90;;;;;;5046923;28;20213;-79
2022/05/29 11:18:44;;;;;;;4.45;0.98;;;16.90;99.90;;;;;;5046636;28;20208;-77
2022/05/29 11:21:19;;;;;;;3.15;1.00;;;17.10;99.90;;;;;;5045788;28;20202;-79
2022/05/29 11:24:00;;;;;;;4.00;0.90;;;16.90;99.90;;;;;;5047268;28;20229;-80
2022/05/29 11:26:42;;;;;;;3.03;0.95;;;16.70;99.90;;;;;;5045982;28;20217;-79
2022/05/29 11:29:33;;;;;;;2.72;1.00;;;16.70;99.90;;;;;;5045722;28;20209;-79
2022/05/29 11:32:11;;;;;;;4.45;0.90;;;16.60;99.90;;;;;;5046500;28;20271;-78
2022/05/29 11:34:43;;;;;;;4.57;0.90;;;16.50;99.90;;;;;;5046016;28;20505;-79
2022/05/29 11:37:30;;;;;;;4.68;0.88;;;16.80;99.90;;;;;;5046142;28;20260;-81
2022/05/29 11:40:01;;;;;;;3.10;0.98;;;17.10;99.90;;;;;;5046824;28;20206;-77
2022/05/29 11:42:30;;;;;;;6.78;1.73;;;16.90;99.90;;;;;;5046091;28;20194;-79
2022/05/29 11:45:05;;;;;;;4.53;0.90;;;16.80;99.90;;;;;;5045534;28;20279;-79
2022/05/29 11:53:20;;;;;;;5.30;1.20;;;17.00;99.90;;;;;;5046717;28;20201;-79
2022/05/29 11:55:48;;;;;;;7.55;1.35;;;16.80;99.90;;;;;;5046554;28;20194;-79
2022/05/29 11:58:21;;;;;;;3.92;1.17;;;16.70;99.90;;;;;;5045378;28;20216;-83
2022/05/29 12:00:55;;;;;;;3.08;1.13;;;16.70;99.90;;;;;;5046497;28;20213;-78
2022/05/29 12:03:29;;;;;;;4.15;1.10;;;16.70;99.90;;;;;;5047362;28;20209;-81
2022/05/29 12:06:01;;;;;;;2.53;1.20;;;17.00;99.90;;;;;;5046501;28;20240;-81
2022/05/29 12:08:34;;;;;;;6.97;1.48;;;17.00;99.90;;;;;;5045756;28;20283;-80
2022/05/29 12:11:09;;;;;;;1.52;0.80;;;17.00;99.90;;;;;;5046031;28;20213;-80
2022/05/29 12:13:41;;;;;;;4.28;1.00;;;17.00;99.90;;;;;;5045662;28;20256;-79
2022/05/29 12:16:13;;;;;;;3.25;0.80;;;17.00;99.90;;;;;;5055065;28;20215;-79
2022/05/29 12:18:49;;;;;;;3.05;0.90;;;17.10;99.90;;;;;;5066439;28;20699;-81
2022/05/29 12:21:28;;;;;;;3.33;1.42;;;17.10;99.90;;;;;;5067849;28;20204;-80
2022/05/29 12:23:57;;;;;;;4.63;1.17;;;17.20;99.90;;;;;;5068825;28;20219;-78
2022/05/29 12:26:29;;;;;;;5.13;1.20;;;17.30;99.90;;;;;;5069242;28;20213;-79
2022/05/29 12:29:01;;;;;;;5.32;1.20;;;17.30;99.90;;;;;;5070527;28;20197;-80
2022/05/29 12:31:34;;;;;;;2.60;0.80;;;17.20;99.90;;;;;;5052589;28;20293;-81
2022/05/29 12:34:01;;;;;;;4.45;1.10;;;17.30;99.90;;;;;;5049742;28;20236;-81
2022/05/29 12:36:49;;;;;;;1.33;0.77;;;17.30;99.90;;;;;;5050092;28;20198;-80
2022/05/29 12:39:29;;;;;;;2.17;0.75;;;17.10;99.90;;;;;;5050018;28;20221;-79
2022/05/29 12:42:25;;;;;;;4.45;0.85;;;17.30;99.90;;;;;;5049539;28;20209;-80
2022/05/29 12:45:28;;;;;;;3.20;0.80;;;17.50;99.90;;;;;;5049878;28;20237;-79
2022/05/29 12:48:27;;;;;;;3.17;1.40;;;17.70;99.90;;;;;;5049948;28;20281;-77
2022/05/29 12:51:30;;;;;;;1.80;1.00;;;17.70;99.90;;;;;;5050274;28;20241;-81
2022/05/29 12:54:54;;;;;;;3.13;0.63;;;17.80;99.90;;;;;;5036660;28;20200;-80
2022/05/29 12:58:01;;;;;;;2.47;0.80;;;17.80;99.90;;;;;;4978416;28;20204;-79
2022/05/29 13:00:40;;;;;;;4.18;0.98;;;17.90;99.90;;;;;;4983362;28;20207;-78
2022/05/29 13:03:50;;;;;;;3.40;1.23;;;17.70;99.90;;;;;;5048313;28;20263;-78
2022/05/29 13:06:51;;;;;;;4.47;1.08;;;17.70;99.90;;;;;;5050408;28;20222;-82
2022/05/29 13:09:53;;;;;;;2.80;0.90;;;17.70;99.90;;;;;;5050831;28;20213;-81
2022/05/29 13:12:25;;;;;;;3.67;0.80;;;17.80;99.90;;;;;;5045141;28;20208;-80
2022/05/29 13:14:56;;;;;;;1.63;0.77;;;17.80;99.90;;;;;;5051000;28;20233;-79
2022/05/29 13:17:26;;;;;;;4.65;1.20;;;17.40;99.90;;;;;;5058491;28;20220;-82
2022/05/29 13:20:00;;;;;;;7.05;1.25;;;17.20;99.90;;;;;;5060903;28;20620;-81
2022/05/29 13:22:47;;;;;;;3.53;0.90;;;17.20;99.90;;;;;;5060419;28;20201;-79
2022/05/29 13:25:16;;;;;;;5.13;1.30;;;17.10;99.90;;;;;;5053897;28;20257;-83
2022/05/29 13:27:43;;;;;;;8.95;1.52;;;17.00;99.90;;;;;;5051214;28;20198;-81
2022/05/29 13:30:54;;;;;;;4.78;1.13;;;16.90;99.90;;;;;;5049256;28;20213;-78
2022/05/29 13:33:47;;;;;;;6.97;1.33;;;16.80;99.90;;;;;;5048005;28;20213;-78
2022/05/29 13:36:49;;;;;;;6.78;2.03;;;16.60;99.90;;;;;;5049317;28;20546;-82
2022/05/29 13:42:26;;;;;;;4.05;1.08;;;16.40;99.90;;;;;;5077614;28;20625;-78
2022/05/29 13:44:53;;;;;;;3.38;0.98;;;16.00;99.90;;;;;;5064466;28;20208;-78
2022/05/29 13:47:40;;;;;;;5.35;1.50;;;15.80;99.90;;;;;;5063010;28;20217;-76
2022/05/29 13:50:23;;;;;;;3.47;1.05;;;15.70;99.90;;;;;;5064437;28;20197;-79